Time;durP1;ratioP1;P1;durP2;ratioP2;P2;SDS_P1;SDS_P2;PMS_P1;PMS_P2;Temp;Humidity;BMP_temperature;BMP_pressure;BME280_temperature;BME280_humidity;BME280_pressure;Samples;Min_cycle;Max_cycle;Signal;HPM_P1;HPM_P2
2022/04/29 00:02:07;;;;;;;15.07;8.40;;;8.20;99.90;;;;;;5060654;28;20180;-74
2022/04/29 00:04:34;;;;;;;9.93;8.87;;;8.20;99.90;;;;;;5060269;28;20692;-75
2022/04/29 00:07:00;;;;;;;12.33;9.33;;;8.20;99.90;;;;;;5058712;28;20186;-74
2022/04/29 00:09:26;;;;;;;11.30;8.50;;;8.20;99.90;;;;;;5060233;28;20168;-75
2022/04/29 00:11:52;;;;;;;11.73;8.80;;;8.20;99.90;;;;;;5058486;28;20175;-75
2022/04/29 00:14:18;;;;;;;14.13;11.33;;;8.20;99.90;;;;;;5058762;28;20282;-74
2022/04/29 00:16:44;;;;;;;11.87;9.90;;;8.20;99.90;;;;;;5060047;28;20651;-74
2022/04/29 00:19:09;;;;;;;14.10;10.40;;;8.20;99.90;;;;;;5058740;28;20175;-74
2022/04/29 00:21:35;;;;;;;18.33;9.47;;;8.10;99.90;;;;;;5058265;28;20182;-74
2022/04/29 00:24:00;;;;;;;15.07;9.90;;;8.10;99.90;;;;;;5059822;28;20266;-75
2022/04/29 00:26:26;;;;;;;22.77;10.23;;;8.10;99.90;;;;;;5059524;28;20218;-74
2022/04/29 00:28:51;;;;;;;13.23;8.63;;;8.10;99.90;;;;;;5059193;28;20191;-74
2022/04/29 00:31:17;;;;;;;13.13;8.67;;;8.10;99.90;;;;;;5059042;28;20171;-74
2022/04/29 00:33:42;;;;;;;15.43;10.10;;;8.10;99.90;;;;;;5059017;28;20172;-74
2022/04/29 00:36:08;;;;;;;11.60;8.53;;;8.10;99.90;;;;;;5057377;28;20191;-74
2022/04/29 00:38:33;;;;;;;16.33;9.03;;;8.10;99.90;;;;;;5057845;28;20610;-74
2022/04/29 00:40:59;;;;;;;14.07;9.20;;;8.00;99.90;;;;;;5059381;28;20522;-74
2022/04/29 00:43:24;;;;;;;17.83;10.07;;;8.00;99.90;;;;;;5058162;28;20222;-74
2022/04/29 00:45:51;;;;;;;12.67;8.53;;;8.10;99.90;;;;;;5058113;28;20196;-74
2022/04/29 00:48:17;;;;;;;11.83;9.53;;;8.00;99.90;;;;;;5057779;28;20168;-74
2022/04/29 00:50:43;;;;;;;13.63;9.10;;;8.00;99.90;;;;;;5061146;28;20257;-74
2022/04/29 00:53:12;;;;;;;13.77;9.17;;;8.00;99.90;;;;;;5063634;28;20176;-74
2022/04/29 00:55:39;;;;;;;19.10;10.63;;;7.90;99.90;;;;;;5064981;28;20214;-74
2022/04/29 00:58:16;;;;;;;13.00;10.47;;;7.90;99.90;;;;;;5064854;28;20170;-74
2022/04/29 01:00:42;;;;;;;17.97;10.83;;;7.90;99.90;;;;;;5062908;28;20221;-74
2022/04/29 01:03:11;;;;;;;13.50;9.53;;;7.90;99.90;;;;;;5062727;28;20225;-74
2022/04/29 01:05:39;;;;;;;12.90;9.90;;;7.80;99.90;;;;;;5061692;28;20222;-74
2022/04/29 01:08:05;;;;;;;12.50;9.10;;;7.80;99.90;;;;;;5061819;28;20172;-74
2022/04/29 01:10:31;;;;;;;10.90;8.70;;;7.80;99.90;;;;;;5062116;28;20648;-74
2022/04/29 01:12:59;;;;;;;12.77;9.53;;;7.70;99.90;;;;;;5063211;28;20172;-74
2022/04/29 01:15:25;;;;;;;10.07;9.00;;;7.80;99.90;;;;;;5061389;28;20191;-74
2022/04/29 01:17:55;;;;;;;13.23;9.20;;;7.70;99.90;;;;;;5061269;28;20205;-74
2022/04/29 01:20:25;;;;;;;11.70;8.90;;;7.70;99.90;;;;;;5063070;28;20159;-74
2022/04/29 01:22:50;;;;;;;13.77;10.03;;;7.70;99.90;;;;;;5063347;28;20156;-74
2022/04/29 01:25:16;;;;;;;17.17;9.97;;;7.70;99.90;;;;;;5062804;28;20225;-74
2022/04/29 01:27:42;;;;;;;14.63;10.13;;;7.70;99.90;;;;;;5062984;28;20180;-74
2022/04/29 01:30:13;;;;;;;16.00;10.00;;;7.60;99.90;;;;;;5063074;28;20168;-74
2022/04/29 01:32:40;;;;;;;15.60;10.07;;;7.60;99.90;;;;;;5062093;28;20659;-74
2022/04/29 01:35:08;;;;;;;13.07;10.37;;;7.60;99.90;;;;;;5062174;28;20219;-74
2022/04/29 01:37:34;;;;;;;16.67;10.90;;;7.60;99.90;;;;;;5063101;28;20167;-74
2022/04/29 01:40:00;;;;;;;16.50;11.27;;;7.60;99.90;;;;;;5061983;28;20184;-74
2022/04/29 01:42:26;;;;;;;16.97;11.67;;;7.60;99.90;;;;;;5062670;28;20190;-74
2022/04/29 01:44:52;;;;;;;16.47;11.43;;;7.70;99.90;;;;;;5060908;28;20223;-74
2022/04/29 01:47:18;;;;;;;13.30;11.03;;;7.60;99.90;;;;;;5061353;28;20645;-74
2022/04/29 01:49:43;;;;;;;15.07;11.93;;;7.70;99.90;;;;;;5061999;28;20167;-74
2022/04/29 01:52:09;;;;;;;18.50;12.83;;;7.70;99.90;;;;;;5061539;28;20179;-74
2022/04/29 01:54:38;;;;;;;19.67;13.03;;;7.70;99.90;;;;;;5062261;28;20266;-74
2022/04/29 01:57:07;;;;;;;20.07;13.27;;;7.70;99.90;;;;;;5060178;28;20182;-74
2022/04/29 01:59:33;;;;;;;18.43;13.17;;;7.70;99.90;;;;;;5060169;28;20263;-74
2022/04/29 02:02:00;;;;;;;17.00;12.20;;;7.70;99.90;;;;;;5060862;28;20180;-74
2022/04/29 02:04:26;;;;;;;18.27;13.03;;;7.80;99.90;;;;;;5061535;28;20294;-74
2022/04/29 02:06:51;;;;;;;20.30;12.87;;;7.80;99.90;;;;;;5060933;28;20179;-74
2022/04/29 02:09:17;;;;;;;20.03;13.00;;;7.80;99.90;;;;;;5060805;28;20179;-74
2022/04/29 02:12:03;;;;;;;18.20;11.40;;;7.70;99.90;;;;;;5060630;28;20172;-74
2022/04/29 02:14:29;;;;;;;18.77;12.00;;;7.80;99.90;;;;;;5061840;28;20195;-74
2022/04/29 02:16:55;;;;;;;17.47;13.23;;;7.80;99.90;;;;;;5061949;28;20171;-74
2022/04/29 02:19:22;;;;;;;18.60;13.50;;;7.70;99.90;;;;;;5060247;28;20175;-74
2022/04/29 02:21:48;;;;;;;18.60;13.00;;;7.80;99.90;;;;;;5060819;28;20172;-74
2022/04/29 02:24:13;;;;;;;18.30;13.17;;;7.80;99.90;;;;;;5059829;28;20211;-74
2022/04/29 02:26:39;;;;;;;15.53;12.07;;;7.80;99.90;;;;;;5061867;28;20200;-74
2022/04/29 02:29:04;;;;;;;22.20;12.67;;;7.80;99.90;;;;;;5060962;28;20234;-74
2022/04/29 02:31:30;;;;;;;17.37;13.47;;;7.80;99.90;;;;;;5060854;28;20169;-74
2022/04/29 02:33:55;;;;;;;19.90;13.67;;;7.80;99.90;;;;;;5061694;28;20202;-74
2022/04/29 02:36:22;;;;;;;16.83;13.17;;;8.10;99.90;;;;;;5060319;28;20183;-76
2022/04/29 02:38:48;;;;;;;19.40;14.07;;;7.80;99.90;;;;;;5060903;28;20172;-74
2022/04/29 02:41:13;;;;;;;21.73;13.50;;;7.80;99.90;;;;;;5061696;28;20267;-74
2022/04/29 02:43:40;;;;;;;21.57;13.43;;;7.90;99.90;;;;;;5061223;28;20197;-74
2022/04/29 02:46:06;;;;;;;20.30;13.30;;;7.80;99.90;;;;;;5061230;28;20251;-74
2022/04/29 02:48:31;;;;;;;21.23;13.37;;;7.80;99.90;;;;;;5061510;28;20210;-74
2022/04/29 02:50:57;;;;;;;19.57;11.83;;;7.90;99.90;;;;;;5059433;28;20271;-74
2022/04/29 02:53:22;;;;;;;18.10;11.97;;;7.80;99.90;;;;;;5061387;28;20198;-74
2022/04/29 02:55:48;;;;;;;17.43;13.00;;;7.80;99.90;;;;;;5059511;28;20202;-74
2022/04/29 02:58:13;;;;;;;14.10;11.47;;;7.80;99.90;;;;;;5060757;28;20613;-74
2022/04/29 03:00:39;;;;;;;20.00;12.13;;;7.90;99.90;;;;;;5060485;28;20543;-74
2022/04/29 03:03:05;;;;;;;14.60;10.67;;;7.80;99.90;;;;;;5058590;28;20179;-74
2022/04/29 03:05:31;;;;;;;19.23;12.00;;;7.80;99.90;;;;;;5059804;28;20644;-74
2022/04/29 03:07:56;;;;;;;18.73;12.73;;;7.90;99.90;;;;;;5058795;28;20177;-74
2022/04/29 03:10:22;;;;;;;26.57;12.90;;;7.90;99.90;;;;;;5060872;28;20202;-73
2022/04/29 03:12:48;;;;;;;18.10;11.77;;;7.90;99.90;;;;;;5061483;28;20194;-74
2022/04/29 03:15:17;;;;;;;18.70;12.10;;;7.90;99.90;;;;;;5061676;28;20199;-74
2022/04/29 03:20:28;;;;;;;16.10;12.17;;;7.90;99.90;;;;;;5061228;28;20239;-74
2022/04/29 03:22:54;;;;;;;15.17;11.07;;;7.90;99.90;;;;;;5060820;28;20180;-74
2022/04/29 03:25:20;;;;;;;18.47;11.23;;;7.90;99.90;;;;;;5059159;28;20211;-74
2022/04/29 03:27:45;;;;;;;15.30;11.67;;;7.90;99.90;;;;;;5060723;28;20180;-74
2022/04/29 03:30:11;;;;;;;16.43;11.43;;;7.90;99.90;;;;;;5060944;28;20257;-74
2022/04/29 03:32:37;;;;;;;18.73;11.10;;;7.90;99.90;;;;;;5058545;28;20183;-73
2022/04/29 03:35:03;;;;;;;14.77;10.37;;;7.90;99.90;;;;;;5059238;28;20262;-74
2022/04/29 03:37:28;;;;;;;18.67;10.13;;;7.90;99.90;;;;;;5060017;28;20213;-74
2022/04/29 03:39:54;;;;;;;16.27;9.63;;;7.90;99.90;;;;;;5060107;28;20191;-74
2022/04/29 03:42:20;;;;;;;13.80;9.83;;;7.80;99.90;;;;;;5060156;28;20186;-74
2022/04/29 03:44:46;;;;;;;16.87;9.93;;;7.80;99.90;;;;;;5059461;28;20704;-74
2022/04/29 03:47:12;;;;;;;18.00;9.27;;;7.90;99.90;;;;;;5058631;28;20182;-74
2022/04/29 03:49:37;;;;;;;16.33;8.90;;;7.80;99.90;;;;;;5060528;28;20175;-74
2022/04/29 03:52:04;;;;;;;17.83;9.63;;;7.80;99.90;;;;;;5059858;28;20163;-74
2022/04/29 03:54:30;;;;;;;14.30;9.97;;;7.80;99.90;;;;;;5059592;28;20199;-74
2022/04/29 03:56:56;;;;;;;12.67;8.90;;;7.80;99.90;;;;;;5058171;28;20722;-74
2022/04/29 03:59:22;;;;;;;18.23;9.40;;;7.70;99.90;;;;;;5057862;28;20270;-74
2022/04/29 04:01:48;;;;;;;16.10;9.03;;;7.70;99.90;;;;;;5059617;28;20234;-74
2022/04/29 04:04:13;;;;;;;13.90;8.83;;;7.70;99.90;;;;;;5059172;28;20229;-75
2022/04/29 04:06:51;;;;;;;12.13;8.43;;;7.70;99.90;;;;;;5057630;28;20174;-74
2022/04/29 04:09:19;;;;;;;14.27;9.00;;;7.70;99.90;;;;;;5058098;28;20161;-75
2022/04/29 04:11:44;;;;;;;13.37;9.03;;;7.70;99.90;;;;;;5057559;28;20262;-74
2022/04/29 04:14:10;;;;;;;16.57;8.87;;;7.60;99.90;;;;;;5055588;28;20865;-75
2022/04/29 04:16:36;;;;;;;16.97;8.50;;;7.60;99.90;;;;;;5046961;28;20189;-76
2022/04/29 04:19:03;;;;;;;17.00;8.77;;;7.60;99.90;;;;;;5049116;28;20199;-75
2022/04/29 04:21:28;;;;;;;14.80;8.47;;;7.60;99.90;;;;;;5046935;28;20177;-75
2022/04/29 04:23:54;;;;;;;12.33;8.53;;;7.60;99.90;;;;;;5052109;28;20580;-74
2022/04/29 04:26:20;;;;;;;16.67;9.63;;;7.60;99.90;;;;;;5051408;28;20210;-74
2022/04/29 04:28:46;;;;;;;13.80;9.00;;;7.60;99.90;;;;;;5044043;28;20238;-74
2022/04/29 04:31:11;;;;;;;17.23;10.63;;;7.60;99.90;;;;;;5043312;28;20243;-74
2022/04/29 04:33:37;;;;;;;14.63;9.27;;;7.60;99.90;;;;;;5042799;28;20184;-74
2022/04/29 04:36:04;;;;;;;16.90;9.20;;;7.60;99.90;;;;;;5042804;28;20227;-74
2022/04/29 04:38:30;;;;;;;15.40;8.90;;;7.60;99.90;;;;;;5043348;28;20176;-74
2022/04/29 04:40:56;;;;;;;12.00;8.37;;;7.60;99.90;;;;;;5042333;28;20318;-74
2022/04/29 04:43:23;;;;;;;14.27;8.70;;;7.60;99.90;;;;;;5042520;28;20322;-74
2022/04/29 04:45:48;;;;;;;19.50;9.23;;;7.60;99.90;;;;;;5043654;28;20180;-74
2022/04/29 04:48:14;;;;;;;16.77;8.03;;;7.60;99.90;;;;;;5043663;28;20183;-74
2022/04/29 04:50:39;;;;;;;16.40;9.67;;;7.70;99.90;;;;;;5041773;28;20176;-74
2022/04/29 04:53:05;;;;;;;18.97;8.43;;;7.70;99.90;;;;;;5041915;28;20187;-74
2022/04/29 04:55:31;;;;;;;20.20;8.37;;;7.70;99.90;;;;;;5042413;28;20235;-75
2022/04/29 04:57:57;;;;;;;14.97;8.80;;;7.70;99.90;;;;;;5053030;28;20255;-75
2022/04/29 05:00:23;;;;;;;14.50;9.10;;;7.70;99.90;;;;;;5045308;28;20201;-74
2022/04/29 05:02:49;;;;;;;15.50;9.10;;;7.70;99.90;;;;;;5041148;28;20234;-74
2022/04/29 05:05:14;;;;;;;13.87;9.10;;;7.70;99.90;;;;;;5060045;23;20306;-75
2022/04/29 05:07:40;;;;;;;11.80;7.97;;;7.70;99.90;;;;;;5055853;28;20174;-76
2022/04/29 05:10:08;;;;;;;15.20;8.77;;;7.70;99.90;;;;;;5055785;28;20199;-76
2022/04/29 05:12:40;;;;;;;22.07;8.77;;;7.70;99.90;;;;;;5055819;28;20537;-76
2022/04/29 05:15:07;;;;;;;16.10;9.30;;;7.70;99.90;;;;;;5037845;28;20195;-76
2022/04/29 05:17:33;;;;;;;17.40;9.23;;;7.70;99.90;;;;;;5056040;28;20180;-76
2022/04/29 05:19:58;;;;;;;14.93;8.80;;;7.80;99.90;;;;;;5037746;28;20711;-76
2022/04/29 05:22:24;;;;;;;14.37;9.53;;;7.80;99.90;;;;;;5037703;28;20171;-76
2022/04/29 05:24:49;;;;;;;12.00;8.60;;;7.80;99.90;;;;;;5055604;28;20568;-76
2022/04/29 05:27:15;;;;;;;16.17;9.10;;;7.90;99.90;;;;;;5055708;28;20168;-76
2022/04/29 05:29:40;;;;;;;14.23;8.87;;;7.90;99.90;;;;;;5055806;28;20172;-76
2022/04/29 05:32:07;;;;;;;15.80;9.13;;;7.90;99.90;;;;;;5055529;28;20178;-75
2022/04/29 05:34:33;;;;;;;14.67;9.63;;;8.00;99.90;;;;;;5036769;28;20266;-75
2022/04/29 05:37:00;;;;;;;15.73;9.20;;;8.00;99.90;;;;;;5055402;28;20699;-76
2022/04/29 05:42:15;;;;;;;15.90;10.00;;;8.10;99.90;;;;;;5055305;28;20209;-77
2022/04/29 05:44:41;;;;;;;21.50;8.63;;;8.20;99.90;;;;;;5054997;28;20708;-76
2022/04/29 05:47:07;;;;;;;18.13;8.80;;;8.30;99.90;;;;;;5055172;28;20261;-75
2022/04/29 05:49:33;;;;;;;16.40;10.17;;;8.30;99.90;;;;;;5037373;28;20258;-76
2022/04/29 05:52:03;;;;;;;14.27;9.07;;;8.40;99.90;;;;;;5037335;28;20183;-76
2022/04/29 05:54:30;;;;;;;13.50;9.03;;;8.40;99.90;;;;;;5037190;28;20209;-76
2022/04/29 05:56:56;;;;;;;15.57;8.90;;;8.50;99.90;;;;;;5054655;28;20175;-76
2022/04/29 05:59:22;;;;;;;15.20;9.57;;;8.50;92.30;;;;;;5054451;28;20171;-76
2022/04/29 06:01:47;;;;;;;16.03;9.13;;;8.50;10.30;;;;;;5041137;28;20549;-77
2022/04/29 06:04:13;;;;;;;15.50;8.93;;;8.60;1.00;;;;;;5056167;28;20555;-77
2022/04/29 06:06:38;;;;;;;15.17;8.70;;;8.60;1.00;;;;;;5055626;28;20213;-77
2022/04/29 06:09:04;;;;;;;18.97;9.13;;;8.60;1.00;;;;;;5055527;28;20172;-76
2022/04/29 06:11:30;;;;;;;16.87;9.10;;;8.60;1.00;;;;;;5055828;28;20181;-77
2022/04/29 06:13:56;;;;;;;16.37;9.50;;;8.70;1.00;;;;;;5036993;28;20183;-77
2022/04/29 06:16:21;;;;;;;18.67;9.17;;;8.70;1.00;;;;;;5051577;28;20203;-76
2022/04/29 06:18:47;;;;;;;15.60;9.43;;;8.70;1.00;;;;;;5054400;28;20180;-76
2022/04/29 06:21:13;;;;;;;14.87;9.10;;;8.80;1.00;;;;;;5054537;28;20178;-77
2022/04/29 06:23:39;;;;;;;19.43;10.30;;;8.80;1.00;;;;;;5054212;28;20200;-77
2022/04/29 06:26:05;;;;;;;16.80;10.17;;;8.90;1.00;;;;;;5036472;28;20682;-76
2022/04/29 06:28:32;;;;;;;14.30;9.77;;;8.90;1.00;;;;;;5054606;28;20220;-76
2022/04/29 06:30:57;;;;;;;21.37;10.60;;;8.90;1.00;;;;;;5054344;28;20171;-77
2022/04/29 06:33:23;;;;;;;18.00;10.37;;;8.90;1.00;;;;;;5053962;28;20229;-76
2022/04/29 06:35:50;;;;;;;20.57;9.57;;;9.00;1.00;;;;;;5038126;28;20191;-76
2022/04/29 06:38:15;;;;;;;21.13;10.90;;;9.00;99.90;;;;;;5059694;28;20730;-76
2022/04/29 06:40:41;;;;;;;18.77;10.83;;;9.00;99.90;;;;;;5059337;28;20176;-76
2022/04/29 06:43:07;;;;;;;14.50;9.47;;;9.10;99.90;;;;;;5059173;28;20175;-76
2022/04/29 06:45:32;;;;;;;13.93;10.43;;;9.20;1.00;;;;;;5057977;28;20241;-75
2022/04/29 06:47:58;;;;;;;16.30;10.17;;;9.20;99.90;;;;;;5041182;28;20175;-76
2022/04/29 06:50:24;;;;;;;18.80;10.60;;;9.30;99.90;;;;;;5041689;28;20168;-75
2022/04/29 06:52:49;;;;;;;19.37;9.50;;;9.30;99.90;;;;;;5055795;28;20164;-76
2022/04/29 06:55:15;;;;;;;18.30;10.60;;;9.40;99.90;;;;;;5036006;28;20203;-76
2022/04/29 06:57:40;;;;;;;14.50;10.17;;;9.50;1.00;;;;;;5035900;28;20203;-76
2022/04/29 07:00:08;;;;;;;20.83;10.20;;;9.50;99.90;;;;;;5053857;28;20175;-76
2022/04/29 07:02:33;;;;;;;18.37;10.57;;;9.60;99.90;;;;;;5035862;28;20179;-76
2022/04/29 07:04:59;;;;;;;17.93;9.63;;;9.70;1.00;;;;;;5053614;28;20210;-75
2022/04/29 07:07:28;;;;;;;17.80;10.03;;;9.80;1.00;;;;;;5035862;28;20160;-76
2022/04/29 07:09:54;;;;;;;17.77;10.07;;;9.90;99.90;;;;;;5035819;28;20176;-75
2022/04/29 07:12:20;;;;;;;16.30;10.90;;;10.00;1.00;;;;;;5053818;28;20169;-76
2022/04/29 07:14:45;;;;;;;20.03;10.13;;;10.10;99.90;;;;;;5053451;28;20539;-76
2022/04/29 07:17:11;;;;;;;19.60;9.73;;;10.20;28.60;;;;;;5035652;28;20179;-77
2022/04/29 07:19:37;;;;;;;14.97;9.33;;;10.30;1.00;;;;;;5035583;28;20237;-76
2022/04/29 07:22:03;;;;;;;16.23;9.50;;;10.50;99.90;;;;;;5053384;28;20233;-76
2022/04/29 07:24:29;;;;;;;16.67;9.90;;;10.60;1.00;;;;;;5053509;28;20192;-76
2022/04/29 07:26:55;;;;;;;20.77;9.77;;;10.60;1.00;;;;;;5035373;28;20190;-76
2022/04/29 07:29:20;;;;;;;15.93;10.30;;;10.70;1.00;;;;;;5035351;28;20172;-76
2022/04/29 07:31:46;;;;;;;19.97;9.70;;;10.80;1.00;;;;;;5052486;28;20167;-77
2022/04/29 07:34:11;;;;;;;16.73;10.10;;;10.90;1.00;;;;;;5052691;28;20176;-76
2022/04/29 07:42:05;;;;;;;14.77;9.23;;;11.00;1.00;;;;;;5053421;28;20163;-76
2022/04/29 07:44:31;;;;;;;20.20;9.93;;;11.00;99.90;;;;;;5052847;28;20195;-77
2022/04/29 07:46:56;;;;;;;16.20;10.23;;;11.00;1.00;;;;;;5053206;28;20163;-76
2022/04/29 07:49:22;;;;;;;18.57;10.40;;;11.00;1.00;;;;;;5053196;28;20638;-76
2022/04/29 07:51:47;;;;;;;16.50;9.53;;;11.00;1.00;;;;;;5053200;28;20175;-76
2022/04/29 07:54:13;;;;;;;14.57;9.10;;;11.10;99.90;;;;;;5035037;28;20329;-76
2022/04/29 07:56:39;;;;;;;15.00;9.03;;;11.00;1.00;;;;;;5035794;28;20191;-76
2022/04/29 07:59:05;;;;;;;15.10;9.57;;;11.10;99.90;;;;;;5034697;28;20190;-76
2022/04/29 08:01:30;;;;;;;15.33;9.60;;;11.10;1.00;;;;;;5035039;28;20249;-76
2022/04/29 08:03:58;;;;;;;13.57;9.30;;;11.20;15.20;;;;;;5053022;28;20571;-76
2022/04/29 08:06:24;;;;;;;22.07;9.97;;;11.20;31.20;;;;;;5052614;28;20210;-76
2022/04/29 08:08:49;;;;;;;14.63;10.00;;;11.20;1.00;;;;;;5052856;28;20173;-76
2022/04/29 08:11:16;;;;;;;17.00;10.10;;;11.20;1.00;;;;;;5053467;28;20172;-76
2022/04/29 08:13:44;;;;;;;14.47;9.90;;;11.20;1.00;;;;;;5052908;28;20191;-76
2022/04/29 08:16:11;;;;;;;17.83;10.03;;;11.30;99.90;;;;;;5052867;28;20188;-76
2022/04/29 08:18:36;;;;;;;21.17;11.37;;;11.40;1.00;;;;;;5052771;28;20250;-75
2022/04/29 08:21:02;;;;;;;20.53;10.93;;;11.40;1.00;;;;;;5053072;28;20261;-75
2022/04/29 08:23:28;;;;;;;17.63;10.20;;;11.50;1.00;;;;;;5052981;28;20668;-75
2022/04/29 08:25:53;;;;;;;14.33;10.53;;;11.50;99.90;;;;;;5052754;28;20659;-76
2022/04/29 08:28:19;;;;;;;19.70;10.90;;;11.50;99.90;;;;;;5052462;28;20176;-76
2022/04/29 08:30:45;;;;;;;23.77;10.87;;;11.60;1.00;;;;;;5052600;28;20684;-75
2022/04/29 08:33:12;;;;;;;16.50;10.20;;;11.60;1.00;;;;;;5034598;28;20549;-76
2022/04/29 08:35:39;;;;;;;15.37;10.27;;;11.70;99.90;;;;;;5034549;28;20258;-75
2022/04/29 08:38:09;;;;;;;17.03;10.57;;;11.80;1.00;;;;;;5052467;28;20197;-75
2022/04/29 08:40:39;;;;;;;18.63;10.57;;;11.80;99.90;;;;;;5034522;28;20608;-76
2022/04/29 08:43:05;;;;;;;19.80;9.73;;;11.80;99.90;;;;;;5052547;28;20167;-76
2022/04/29 08:45:30;;;;;;;14.97;10.00;;;11.90;1.00;;;;;;5052225;28;20707;-76
2022/04/29 08:47:56;;;;;;;17.80;10.37;;;11.90;1.00;;;;;;5052473;28;20186;-76
2022/04/29 08:50:23;;;;;;;15.20;9.83;;;11.90;99.90;;;;;;5052925;28;20172;-76
2022/04/29 08:52:50;;;;;;;14.40;9.97;;;11.90;1.00;;;;;;5052411;28;20234;-76
2022/04/29 09:00:44;;;;;;;17.30;10.10;;;12.20;99.90;;;;;;5052853;28;20672;-75
2022/04/29 09:03:18;;;;;;;13.47;9.67;;;12.20;99.90;;;;;;5034387;28;20199;-76
2022/04/29 09:05:46;;;;;;;16.00;9.53;;;12.30;99.90;;;;;;5052283;28;20204;-74
2022/04/29 09:08:14;;;;;;;17.83;10.13;;;12.40;99.90;;;;;;5052139;28;20179;-75
2022/04/29 09:10:50;;;;;;;15.77;9.37;;;12.40;1.00;;;;;;5054491;28;20172;-74
2022/04/29 09:13:19;;;;;;;14.77;9.67;;;12.50;99.90;;;;;;5055748;28;20171;-74
2022/04/29 09:16:06;;;;;;;18.77;9.47;;;12.60;1.00;;;;;;5056289;28;20605;-74
2022/04/29 09:18:34;;;;;;;16.20;9.90;;;12.60;19.00;;;;;;5037833;28;20172;-74
2022/04/29 09:21:17;;;;;;;15.60;9.97;;;12.70;1.00;;;;;;5037871;28;20258;-74
2022/04/29 09:24:06;;;;;;;14.73;10.43;;;12.70;1.00;;;;;;5037666;28;20195;-73
2022/04/29 09:26:36;;;;;;;18.03;10.23;;;12.80;1.00;;;;;;5037729;28;20240;-74
2022/04/29 09:29:15;;;;;;;14.53;9.60;;;12.80;99.90;;;;;;5055588;28;20202;-74
2022/04/29 09:31:52;;;;;;;16.67;9.77;;;12.80;1.00;;;;;;5055492;28;20164;-74
2022/04/29 09:34:18;;;;;;;18.37;10.10;;;12.90;1.00;;;;;;5055397;28;20171;-74
2022/04/29 09:36:44;;;;;;;20.07;9.23;;;13.10;99.90;;;;;;5037510;28;20176;-74
2022/04/29 09:39:27;;;;;;;17.83;9.70;;;13.10;1.00;;;;;;5055338;28;20171;-74
2022/04/29 09:41:59;;;;;;;17.03;9.50;;;13.10;1.00;;;;;;5055865;28;20519;-75
2022/04/29 09:44:36;;;;;;;22.37;9.70;;;13.30;1.00;;;;;;5037250;28;20204;-75
2022/04/29 09:47:21;;;;;;;20.03;9.73;;;13.30;99.90;;;;;;5037273;28;20182;-75
2022/04/29 09:49:58;;;;;;;16.43;9.50;;;13.40;1.00;;;;;;5055463;28;20168;-75
2022/04/29 09:52:25;;;;;;;20.57;9.10;;;13.50;99.90;;;;;;5055347;28;20606;-74
2022/04/29 09:54:51;;;;;;;17.17;9.63;;;13.50;11.00;;;;;;5037006;28;20306;-75
2022/04/29 09:57:19;;;;;;;18.20;9.60;;;13.60;99.90;;;;;;5054912;28;20187;-76
2022/04/29 09:59:45;;;;;;;15.30;9.40;;;13.70;35.20;;;;;;5037009;28;20180;-75
2022/04/29 10:02:16;;;;;;;18.43;10.70;;;13.70;16.70;;;;;;5055000;28;20168;-75
2022/04/29 10:04:45;;;;;;;15.77;8.73;;;13.80;99.90;;;;;;5054644;28;20274;-75
2022/04/29 10:07:12;;;;;;;18.63;9.23;;;13.90;99.90;;;;;;5054824;28;20160;-74
2022/04/29 10:09:42;;;;;;;14.17;8.33;;;14.00;1.00;;;;;;5055003;28;20175;-76
2022/04/29 10:12:13;;;;;;;14.60;8.40;;;14.10;1.00;;;;;;5054939;28;20170;-73
2022/04/29 10:14:40;;;;;;;12.73;7.53;;;14.10;45.20;;;;;;5036757;28;20314;-75
2022/04/29 10:22:58;;;;;;;17.77;9.13;;;14.50;1.00;;;;;;5054824;28;20584;-75
2022/04/29 10:25:26;;;;;;;18.23;8.80;;;14.60;1.00;;;;;;5036497;28;20203;-75
2022/04/29 10:27:52;;;;;;;18.93;9.07;;;14.60;1.00;;;;;;5036446;28;20210;-75
2022/04/29 10:30:27;;;;;;;18.10;8.30;;;14.50;99.90;;;;;;5054673;28;20660;-75
2022/04/29 10:33:00;;;;;;;15.93;8.17;;;14.40;1.00;;;;;;5054257;28;20172;-75
2022/04/29 10:35:45;;;;;;;14.73;7.60;;;14.50;1.00;;;;;;5036311;28;20231;-75
2022/04/29 10:38:21;;;;;;;15.03;7.60;;;14.60;1.00;;;;;;5036250;28;20660;-75
2022/04/29 10:40:48;;;;;;;15.33;7.90;;;14.60;1.00;;;;;;5054399;28;20248;-76
2022/04/29 10:43:18;;;;;;;13.57;7.30;;;14.70;1.00;;;;;;5036200;28;20266;-78
2022/04/29 10:46:05;;;;;;;12.13;7.30;;;14.70;1.00;;;;;;5054026;28;20190;-76
2022/04/29 10:48:32;;;;;;;12.77;7.93;;;14.70;99.90;;;;;;5054071;28;20514;-75
2022/04/29 10:51:10;;;;;;;16.20;8.17;;;14.70;99.90;;;;;;5036119;28;20176;-76
2022/04/29 10:53:38;;;;;;;14.17;7.37;;;14.80;99.90;;;;;;5054240;28;20246;-75
2022/04/29 10:56:30;;;;;;;13.63;7.77;;;14.80;99.90;;;;;;5035879;28;20195;-75
2022/04/29 10:59:14;;;;;;;16.83;7.30;;;14.90;1.00;;;;;;5027293;28;20680;-75
2022/04/29 11:01:51;;;;;;;16.73;7.20;;;14.90;99.90;;;;;;5035961;28;20237;-76
2022/04/29 11:04:16;;;;;;;17.43;7.20;;;15.00;99.90;;;;;;5053565;28;20668;-76
2022/04/29 11:06:45;;;;;;;10.87;6.87;;;15.10;1.00;;;;;;5053346;28;20211;-76
2022/04/29 11:09:28;;;;;;;13.80;7.00;;;15.30;1.00;;;;;;5035891;28;20176;-75
2022/04/29 11:11:54;;;;;;;12.00;6.60;;;15.30;1.00;;;;;;5037115;28;20174;-75
2022/04/29 11:14:21;;;;;;;11.53;6.43;;;15.40;99.90;;;;;;5035578;28;20175;-75
2022/04/29 11:17:08;;;;;;;15.47;6.60;;;15.30;1.00;;;;;;5053814;28;20523;-76
2022/04/29 11:19:35;;;;;;;12.97;6.30;;;15.30;27.40;;;;;;5053675;28;20175;-75
2022/04/29 11:24:49;;;;;;;12.77;6.97;;;15.20;99.90;;;;;;5053878;28;20206;-75
2022/04/29 11:27:25;;;;;;;12.57;6.23;;;15.20;99.90;;;;;;5053635;28;20537;-76
2022/04/29 11:29:52;;;;;;;15.03;6.53;;;15.30;99.90;;;;;;5053636;28;20618;-74
2022/04/29 11:32:24;;;;;;;12.30;5.73;;;15.40;99.90;;;;;;5034896;28;20175;-78
2022/04/29 11:35:00;;;;;;;9.27;5.70;;;15.40;99.90;;;;;;5053666;28;20195;-78
2022/04/29 11:37:34;;;;;;;13.17;6.30;;;15.50;53.80;;;;;;5036989;28;20247;-76
2022/04/29 11:40:10;;;;;;;11.00;5.67;;;15.50;5.70;;;;;;5054539;28;20229;-76
2022/04/29 11:42:36;;;;;;;11.90;5.77;;;15.50;1.00;;;;;;5035319;28;20225;-73
2022/04/29 11:45:09;;;;;;;12.63;5.47;;;15.60;1.00;;;;;;5053230;28;20689;-74
2022/04/29 11:47:36;;;;;;;11.63;6.00;;;15.80;99.90;;;;;;5053465;28;20521;-74
2022/04/29 11:50:03;;;;;;;13.33;5.97;;;15.80;17.10;;;;;;5053098;28;20192;-73
2022/04/29 11:52:33;;;;;;;14.00;5.70;;;15.80;1.00;;;;;;5036191;28;20262;-78
2022/04/29 11:55:00;;;;;;;8.83;5.57;;;15.90;1.00;;;;;;5035354;28;20203;-75
2022/04/29 11:57:49;;;;;;;9.63;5.77;;;15.80;1.00;;;;;;5057068;28;20189;-77
2022/04/29 12:00:22;;;;;;;13.70;5.73;;;15.70;99.90;;;;;;5059448;28;20180;-76
2022/04/29 12:02:49;;;;;;;14.70;5.97;;;15.80;1.00;;;;;;5061268;28;20590;-76
2022/04/29 12:05:14;;;;;;;12.07;5.83;;;15.90;1.00;;;;;;5053431;28;20234;-75
2022/04/29 12:07:42;;;;;;;7.47;5.20;;;16.00;1.00;;;;;;5053376;28;20210;-75
2022/04/29 12:10:22;;;;;;;14.40;5.37;;;16.10;1.00;;;;;;5053960;28;20176;-75
2022/04/29 12:12:49;;;;;;;14.60;5.10;;;16.20;1.00;;;;;;5053462;28;20182;-76
2022/04/29 12:15:19;;;;;;;12.47;4.73;;;16.30;1.00;;;;;;5054081;28;20191;-75
2022/04/29 12:17:47;;;;;;;8.67;4.63;;;16.30;1.00;;;;;;5036367;28;20186;-75
2022/04/29 12:20:20;;;;;;;9.67;4.50;;;16.30;99.90;;;;;;5036335;28;20191;-76
2022/04/29 12:22:50;;;;;;;9.63;5.10;;;16.30;1.00;;;;;;5053525;28;20199;-75
2022/04/29 12:25:21;;;;;;;11.07;4.47;;;16.30;99.90;;;;;;5035460;28;20207;-76
2022/04/29 12:28:12;;;;;;;13.93;5.00;;;16.30;99.90;;;;;;5053524;28;20242;-76
2022/04/29 12:36:15;;;;;;;8.43;4.60;;;16.10;99.90;;;;;;5052864;28;20222;-75
2022/04/29 12:38:43;;;;;;;9.00;4.60;;;16.00;1.00;;;;;;5052938;28;20246;-75
2022/04/29 12:41:29;;;;;;;13.53;5.43;;;15.90;1.00;;;;;;5052688;28;20175;-75
2022/04/29 12:44:07;;;;;;;7.13;3.93;;;16.00;99.90;;;;;;5035743;28;20184;-75
2022/04/29 12:46:33;;;;;;;8.77;4.70;;;16.00;74.40;;;;;;5038684;28;20336;-75
2022/04/29 12:48:59;;;;;;;11.63;4.93;;;16.10;99.90;;;;;;5056323;28;20170;-74
2022/04/29 12:51:34;;;;;;;10.07;5.20;;;16.10;99.90;;;;;;5056577;28;20168;-75
2022/04/29 12:54:03;;;;;;;8.83;4.83;;;16.00;1.00;;;;;;5038289;28;20163;-75
2022/04/29 12:56:33;;;;;;;9.87;4.70;;;15.90;1.00;;;;;;5056005;28;20215;-75
2022/04/29 12:59:02;;;;;;;11.73;4.30;;;15.90;1.00;;;;;;5056058;28;20564;-76
2022/04/29 13:01:40;;;;;;;8.60;4.60;;;15.90;99.90;;;;;;5038121;28;20175;-75
2022/04/29 13:04:06;;;;;;;12.37;4.97;;;15.90;91.10;;;;;;5055929;28;20560;-74
2022/04/29 13:06:35;;;;;;;9.93;4.97;;;15.90;99.90;;;;;;5037922;28;20256;-75
2022/04/29 13:09:02;;;;;;;11.87;6.10;;;15.80;59.60;;;;;;5056420;28;20630;-75
2022/04/29 13:11:29;;;;;;;7.80;4.50;;;15.80;6.70;;;;;;5056353;28;20174;-75
2022/04/29 13:13:54;;;;;;;12.43;4.90;;;15.80;99.90;;;;;;5037986;28;20176;-76
2022/04/29 13:16:21;;;;;;;9.13;4.97;;;15.70;99.90;;;;;;5055801;28;20196;-75
2022/04/29 13:18:47;;;;;;;12.40;4.97;;;15.70;99.90;;;;;;5055805;28;20601;-75